createdAt,value
2022-08-26T00:04:40.837Z,94559.53
2022-08-26T00:07:08.628Z,94559.53
2022-08-26T00:09:39.142Z,94561.69
2022-08-26T00:12:08.878Z,94549.09
2022-08-26T00:14:36.567Z,94547.25
2022-08-26T00:17:04.298Z,94548.81
2022-08-26T00:19:32.587Z,94539.50
2022-08-26T00:25:13.496Z,94547.88
2022-08-26T00:27:43.543Z,94553.53
2022-08-26T00:30:14.824Z,94548.16
2022-08-26T00:32:46.279Z,94546.59
2022-08-26T00:35:14.190Z,94548.75
2022-08-26T00:37:42.285Z,94544.50
2022-08-26T00:40:13.294Z,94548.25
2022-08-26T00:47:48.169Z,94548.97
2022-08-26T00:50:18.543Z,94548.47
2022-08-26T00:52:46.985Z,94542.91
2022-08-26T00:55:20.464Z,94546.13
2022-08-26T00:57:50.845Z,94544.03
2022-08-26T01:00:21.206Z,94532.03
2022-08-26T01:02:50.537Z,94548.16
2022-08-26T01:10:25.853Z,94543.88
2022-08-26T01:12:57.725Z,94543.06
2022-08-26T01:15:32.755Z,94537.13
2022-08-26T01:18:01.156Z,94539.72
2022-08-26T01:20:38.658Z,94550.25
2022-08-26T01:23:08.982Z,94549.38
2022-08-26T01:25:43.075Z,94545.41
2022-08-26T01:30:52.752Z,94545.41
2022-08-26T01:33:23.862Z,94546.41
2022-08-26T01:35:51.503Z,94542.66
2022-08-26T01:38:19.184Z,94541.34
2022-08-26T01:40:46.922Z,94547.22
2022-08-26T01:43:20.174Z,94545.63
2022-08-26T01:45:53.995Z,94547.50
2022-08-26T01:53:26.034Z,94531.00
2022-08-26T01:55:58.377Z,94538.75
2022-08-26T01:58:30.491Z,94528.06
2022-08-26T02:00:58.414Z,94528.63
2022-08-26T02:03:27.081Z,94527.53
2022-08-26T02:05:56.283Z,94532.19
2022-08-26T02:08:32.321Z,94528.09
2022-08-26T02:15:58.388Z,94530.78
2022-08-26T02:18:26.293Z,94534.78
2022-08-26T02:20:55.066Z,94526.81
2022-08-26T02:23:23.944Z,94533.75
2022-08-26T02:25:57.334Z,94536.22
2022-08-26T02:28:27.839Z,94541.28
2022-08-26T02:30:56.657Z,94537.06
2022-08-26T02:36:21.601Z,94534.22
2022-08-26T02:38:49.123Z,94531.09
2022-08-26T02:41:17.088Z,94537.81
2022-08-26T02:43:45.730Z,94532.22
2022-08-26T02:46:13.614Z,94531.16
2022-08-26T02:48:49.059Z,94534.13
2022-08-26T02:51:16.538Z,94528.19
2022-08-26T02:58:43.831Z,94530.91
2022-08-26T03:01:20.255Z,94541.13
2022-08-26T03:03:49.355Z,94534.97
2022-08-26T03:06:17.555Z,94539.22
2022-08-26T03:08:45.819Z,94536.53
2022-08-26T03:11:14.569Z,94540.34
2022-08-26T03:13:43.157Z,94542.66
2022-08-26T03:21:16.474Z,94543.78
2022-08-26T03:23:45.886Z,94549.88
2022-08-26T03:26:15.247Z,94541.75
2022-08-26T03:28:58.089Z,94544.41
2022-08-26T03:31:26.000Z,94553.50
2022-08-26T03:33:56.578Z,94549.75
2022-08-26T03:36:27.941Z,94541.75
2022-08-26T03:44:01.796Z,94542.41
2022-08-26T03:46:31.572Z,94540.75
2022-08-26T03:49:00.583Z,94545.59
2022-08-26T03:51:29.249Z,94547.75
2022-08-26T03:53:57.136Z,94548.03
2022-08-26T03:56:24.541Z,94551.22
2022-08-26T03:58:52.488Z,94548.03
2022-08-26T04:05:55.785Z,94539.72
2022-08-26T04:08:23.662Z,94539.72
2022-08-26T04:10:55.563Z,94532.59
2022-08-26T04:13:23.202Z,94540.00
2022-08-26T04:15:51.229Z,94532.00
2022-08-26T04:18:18.766Z,94532.50
2022-08-26T04:20:46.776Z,94539.16
2022-08-26T04:28:17.288Z,94537.00
2022-08-26T04:30:44.750Z,94537.28
2022-08-26T04:33:13.503Z,94532.94
2022-08-26T04:35:43.148Z,94539.56
2022-08-26T04:38:11.378Z,94534.78
2022-08-26T04:40:43.552Z,94533.41
2022-08-26T04:43:15.256Z,94527.16
2022-08-26T04:50:43.579Z,94541.81
2022-08-26T04:53:10.932Z,94534.31
2022-08-26T04:55:42.701Z,94537.53
2022-08-26T04:58:14.934Z,94533.84
2022-08-26T05:00:43.925Z,94532.75
2022-08-26T05:03:11.266Z,94533.78
2022-08-26T05:05:41.068Z,94541.44
2022-08-26T05:13:15.494Z,94536.44
2022-08-26T05:15:43.877Z,94533.47
2022-08-26T05:18:13.326Z,94532.59
2022-08-26T05:20:41.852Z,94537.88
2022-08-26T05:23:09.573Z,94543.66
2022-08-26T05:25:39.853Z,94541.72
2022-08-26T05:28:07.583Z,94542.94
2022-08-26T05:35:39.710Z,94541.34
2022-08-26T05:38:12.383Z,94542.38
2022-08-26T05:40:42.562Z,94543.66
2022-08-26T05:43:10.800Z,94545.38
2022-08-26T05:45:43.517Z,94544.28
2022-08-26T05:48:13.868Z,94544.69
2022-08-26T05:50:44.122Z,94551.00
2022-08-26T05:58:17.341Z,94555.41
2022-08-26T06:00:45.096Z,94552.53
2022-08-26T06:03:12.650Z,94556.31
2022-08-26T06:05:40.309Z,94560.28
2022-08-26T06:08:11.327Z,94552.13
2022-08-26T06:10:43.905Z,94556.94
2022-08-26T06:13:14.470Z,94561.03
2022-08-26T06:20:43.686Z,94566.88
2022-08-26T06:23:43.336Z,94556.69
2022-08-26T06:26:11.440Z,94559.22
2022-08-26T06:28:39.070Z,94564.72
2022-08-26T06:31:06.650Z,94563.22
2022-08-26T06:33:34.842Z,94561.41
2022-08-26T06:36:03.421Z,94564.53
2022-08-26T06:43:34.424Z,94571.94
2022-08-26T06:46:04.253Z,94569.31
2022-08-26T06:48:32.920Z,94576.16
2022-08-26T06:51:06.367Z,94566.63
2022-08-26T06:53:33.808Z,94568.69
2022-08-26T06:56:03.960Z,94562.50
2022-08-26T06:58:31.663Z,94571.38
2022-08-26T07:06:04.959Z,94576.16
2022-08-26T07:08:32.818Z,94571.38
2022-08-26T07:11:05.046Z,94574.69
2022-08-26T07:13:36.337Z,94575.03
2022-08-26T07:16:04.779Z,94578.13
2022-08-26T07:18:33.478Z,94578.69
2022-08-26T07:21:02.771Z,94577.81
2022-08-26T07:28:40.670Z,94578.03
2022-08-26T07:31:09.874Z,94575.13
2022-08-26T07:33:38.615Z,94571.66
2022-08-26T07:36:08.282Z,94575.88
2022-08-26T07:38:37.304Z,94584.13
2022-08-26T07:41:05.155Z,94585.66
2022-08-26T07:43:34.399Z,94586.56
2022-08-26T07:51:06.238Z,94584.44
2022-08-26T07:53:35.124Z,94587.16
2022-08-26T07:56:03.012Z,94592.91
2022-08-26T07:58:30.697Z,94582.28
2022-08-26T08:00:58.445Z,94585.38
2022-08-26T08:03:26.468Z,94587.59
2022-08-26T08:05:54.620Z,94582.91
2022-08-26T08:12:47.449Z,94580.44
2022-08-26T08:15:16.000Z,94570.63
2022-08-26T08:17:44.193Z,94571.34
2022-08-26T08:20:13.514Z,94569.50
2022-08-26T08:22:42.439Z,94566.84
2022-08-26T08:25:12.282Z,94562.78
2022-08-26T08:27:42.169Z,94562.78
2022-08-26T08:35:16.048Z,94559.31
2022-08-26T08:37:45.022Z,94558.50
2022-08-26T08:40:17.724Z,94556.47
2022-08-26T08:42:47.653Z,94551.94
2022-08-26T08:45:21.840Z,94545.84
2022-08-26T08:47:54.604Z,94547.63
2022-08-26T08:50:28.501Z,94544.59
2022-08-26T08:58:03.145Z,94537.53
2022-08-26T09:00:40.081Z,94543.28
2022-08-26T09:03:19.007Z,94538.16
2022-08-26T09:05:50.921Z,94534.63
2022-08-26T09:08:23.295Z,94529.00
2022-08-26T09:10:54.460Z,94532.28
2022-08-26T09:13:25.260Z,94531.50
2022-08-26T09:20:58.318Z,94527.16
2022-08-26T09:23:26.671Z,94524.38
2022-08-26T09:25:56.523Z,94526.31
2022-08-26T09:28:25.942Z,94515.84
2022-08-26T09:31:10.651Z,94528.97
2022-08-26T09:33:39.745Z,94518.59
2022-08-26T09:36:22.829Z,94532.50
2022-08-26T09:44:09.235Z,94532.13
2022-08-26T09:46:46.521Z,94525.78
2022-08-26T09:49:25.519Z,94522.56
2022-08-26T09:52:20.674Z,94530.63
2022-08-26T09:55:02.190Z,94518.81
2022-08-26T09:57:33.445Z,94521.19
2022-08-26T10:02:47.940Z,94519.16
2022-08-26T10:05:28.878Z,94520.06
2022-08-26T10:07:58.000Z,94523.81
2022-08-26T10:10:33.120Z,94510.91
2022-08-26T10:13:08.374Z,94510.81
2022-08-26T10:15:45.373Z,94511.22
2022-08-26T10:23:19.209Z,94526.66
2022-08-26T10:25:53.575Z,94515.38
2022-08-26T10:28:32.010Z,94517.53
2022-08-26T10:31:04.738Z,94514.72
2022-08-26T10:33:32.261Z,94515.19
2022-08-26T10:36:03.846Z,94510.91
2022-08-26T10:38:39.151Z,94510.28
2022-08-26T10:43:51.468Z,94509.78
2022-08-26T10:46:23.601Z,94506.63
2022-08-26T10:49:00.095Z,94505.97
2022-08-26T10:51:29.059Z,94498.44
2022-08-26T10:54:02.335Z,94490.28
2022-08-26T10:56:43.598Z,94497.34
2022-08-26T11:03:03.158Z,94481.72
2022-08-26T11:05:31.022Z,94481.41
2022-08-26T11:13:00.258Z,94480.81
2022-08-26T11:16:10.484Z,94488.72
2022-08-26T11:18:46.301Z,94482.06
2022-08-26T11:21:47.720Z,94476.69
2022-08-26T11:27:10.037Z,94481.34
2022-08-26T11:29:58.736Z,94482.13
2022-08-26T11:32:45.072Z,94474.41
2022-08-26T11:35:47.104Z,94473.66
2022-08-26T11:38:20.536Z,94486.56
2022-08-26T11:41:10.538Z,94482.31
2022-08-26T11:49:14.175Z,94481.84
2022-08-26T11:51:47.709Z,94483.91
2022-08-26T11:54:17.639Z,94491.38
2022-08-26T11:56:59.045Z,94486.72
2022-08-26T12:02:03.192Z,94481.53
2022-08-26T12:04:35.008Z,94489.00
2022-08-26T12:12:09.443Z,94482.75
2022-08-26T12:14:40.324Z,94466.72
2022-08-26T12:17:14.118Z,94473.78
2022-08-26T12:19:42.002Z,94464.72
2022-08-26T12:22:19.047Z,94462.44
2022-08-26T12:24:51.800Z,94460.44
2022-08-26T12:30:22.686Z,94457.09
2022-08-26T12:32:57.979Z,94451.03
2022-08-26T12:35:28.180Z,94457.59
2022-08-26T12:37:56.401Z,94459.63
2022-08-26T12:40:39.733Z,94455.25
2022-08-26T12:43:08.451Z,94456.38
2022-08-26T12:45:40.977Z,94451.81
2022-08-26T12:53:21.080Z,94439.31
2022-08-26T12:55:50.882Z,94435.75
2022-08-26T12:58:25.660Z,94451.44
2022-08-26T13:00:55.469Z,94439.31
2022-08-26T13:03:43.128Z,94432.97
2022-08-26T13:06:27.008Z,94443.88
2022-08-26T13:12:41.493Z,94440.66
2022-08-26T13:15:09.579Z,94437.00
2022-08-26T13:17:37.291Z,94438.03
2022-08-26T13:20:05.337Z,94433.59
2022-08-26T13:22:33.625Z,94428.06
2022-08-26T13:25:01.071Z,94432.91
2022-08-26T13:27:30.046Z,94430.66
2022-08-26T13:35:05.836Z,94422.25
2022-08-26T13:37:34.897Z,94429.25
2022-08-26T13:40:05.023Z,94430.88
2022-08-26T13:42:32.640Z,94431.00
2022-08-26T13:45:02.300Z,94422.31
2022-08-26T13:47:31.241Z,94423.88
2022-08-26T13:49:58.724Z,94418.47
2022-08-26T13:57:27.354Z,94419.31
2022-08-26T13:59:56.540Z,94414.97
2022-08-26T14:02:24.043Z,94416.41
2022-08-26T14:04:53.191Z,94419.72
2022-08-26T14:07:20.919Z,94412.94
2022-08-26T14:09:48.555Z,94423.59
2022-08-26T14:12:16.577Z,94412.78
2022-08-26T14:19:27.238Z,94423.88
2022-08-26T14:21:54.778Z,94422.53
2022-08-26T14:24:23.201Z,94418.47
2022-08-26T14:26:50.845Z,94415.28
2022-08-26T14:29:18.410Z,94415.47
2022-08-26T14:31:46.150Z,94403.63
2022-08-26T14:34:14.379Z,94408.31
2022-08-26T14:39:23.289Z,94416.81
2022-08-26T14:41:55.130Z,94413.47
2022-08-26T14:44:27.673Z,94413.72
2022-08-26T14:46:56.355Z,94417.19
2022-08-26T14:49:24.755Z,94416.03
2022-08-26T14:51:52.493Z,94414.16
2022-08-26T14:54:20.971Z,94407.81
2022-08-26T15:01:35.221Z,94408.63
2022-08-26T15:04:03.564Z,94412.13
2022-08-26T15:06:32.475Z,94404.13
2022-08-26T15:09:00.095Z,94410.44
2022-08-26T15:11:29.193Z,94410.75
2022-08-26T15:13:56.924Z,94407.16
2022-08-26T15:16:24.764Z,94410.47
2022-08-26T15:23:56.397Z,94414.53
2022-08-26T15:26:24.596Z,94414.75
2022-08-26T15:28:52.315Z,94420.44
2022-08-26T15:31:30.427Z,94418.06
2022-08-26T15:33:59.538Z,94420.59
2022-08-26T15:36:28.494Z,94409.69
2022-08-26T15:38:58.125Z,94414.56
2022-08-26T15:46:29.089Z,94401.56
2022-08-26T15:48:57.165Z,94401.88
2022-08-26T15:51:27.116Z,94405.03
2022-08-26T15:53:56.217Z,94395.38
2022-08-26T15:56:26.018Z,94399.63
2022-08-26T15:58:56.400Z,94400.44
2022-08-26T16:01:27.472Z,94396.84
2022-08-26T16:08:11.617Z,94387.91
2022-08-26T16:10:45.385Z,94380.88
2022-08-26T16:13:16.097Z,94381.19
2022-08-26T16:15:43.809Z,94385.47
2022-08-26T16:18:12.644Z,94383.28
2022-08-26T16:20:55.293Z,94384.56
2022-08-26T16:23:37.911Z,94386.50
2022-08-26T16:31:07.998Z,94387.59
2022-08-26T16:33:37.237Z,94391.09
2022-08-26T16:36:05.793Z,94384.63
2022-08-26T16:38:33.712Z,94384.09
2022-08-26T16:41:02.107Z,94380.88
2022-08-26T16:43:29.880Z,94391.66
2022-08-26T16:45:58.015Z,94390.41
2022-08-26T16:52:55.793Z,94384.44
2022-08-26T16:55:25.187Z,94387.56
2022-08-26T16:57:53.115Z,94393.22
2022-08-26T17:00:27.309Z,94400.31
2022-08-26T17:02:56.034Z,94400.72
2022-08-26T17:05:24.735Z,94402.19
2022-08-26T17:07:52.410Z,94398.72
2022-08-26T17:12:58.986Z,94404.72
2022-08-26T17:15:26.951Z,94401.81
2022-08-26T17:17:55.634Z,94401.75
2022-08-26T17:20:24.906Z,94404.94
2022-08-26T17:22:55.272Z,94401.66
2022-08-26T17:25:25.423Z,94409.25
2022-08-26T17:27:53.760Z,94414.22
2022-08-26T17:35:22.208Z,94408.84
2022-08-26T17:37:50.619Z,94414.16
2022-08-26T17:40:20.773Z,94416.97
2022-08-26T17:42:49.962Z,94427.59
2022-08-26T17:47:53.778Z,94418.66
2022-08-26T17:53:33.667Z,94421.31
2022-08-26T17:56:01.281Z,94421.88
2022-08-26T17:58:30.051Z,94422.84
2022-08-26T18:00:58.308Z,94424.13
2022-08-26T18:03:26.937Z,94417.75
2022-08-26T18:05:55.361Z,94427.63
2022-08-26T18:08:25.269Z,94430.94
2022-08-26T18:13:27.526Z,94432.34
2022-08-26T18:15:55.519Z,94427.38
2022-08-26T18:18:23.644Z,94434.25
2022-08-26T18:20:51.842Z,94440.53
2022-08-26T18:23:20.582Z,94431.56
2022-08-26T18:25:49.096Z,94434.00
2022-08-26T18:28:17.055Z,94432.66
2022-08-26T18:33:22.780Z,94427.66
2022-08-26T18:35:50.600Z,94435.00
2022-08-26T18:38:18.789Z,94447.19
2022-08-26T18:40:47.652Z,94442.28
2022-08-26T18:43:15.882Z,94445.75
2022-08-26T18:45:43.691Z,94444.34
2022-08-26T18:48:12.170Z,94456.31
2022-08-26T18:56:48.988Z,94462.63
2022-08-26T18:59:18.107Z,94450.19
2022-08-26T19:01:49.832Z,94450.72
2022-08-26T19:04:18.682Z,94459.88
2022-08-26T19:06:48.014Z,94461.31
2022-08-26T19:09:18.008Z,94464.00
2022-08-26T19:14:25.085Z,94469.31
2022-08-26T19:16:53.727Z,94468.97
2022-08-26T19:19:24.105Z,94464.03
2022-08-26T19:21:53.449Z,94466.53
2022-08-26T19:24:21.773Z,94472.00
2022-08-26T19:26:57.595Z,94471.53
2022-08-26T19:32:51.017Z,94465.66
2022-08-26T19:35:19.055Z,94468.34
2022-08-26T19:37:47.732Z,94474.22
2022-08-26T19:40:15.627Z,94469.75
2022-08-26T19:42:46.024Z,94477.22
2022-08-26T19:45:24.711Z,94481.00
2022-08-26T19:50:46.404Z,94491.19
2022-08-26T19:53:14.892Z,94487.50
2022-08-26T19:55:42.568Z,94489.34
2022-08-26T19:58:11.198Z,94483.91
2022-08-26T20:00:41.886Z,94479.94
2022-08-26T20:03:10.685Z,94483.03
2022-08-26T20:05:43.870Z,94484.91
2022-08-26T20:13:12.686Z,94485.75
2022-08-26T20:15:40.329Z,94495.81
2022-08-26T20:18:28.170Z,94501.47
2022-08-26T20:21:28.738Z,94488.34
2022-08-26T20:23:59.910Z,94486.16
2022-08-26T20:26:29.573Z,94488.94
2022-08-26T20:32:12.142Z,94499.88
2022-08-26T20:34:40.062Z,94496.88
2022-08-26T20:37:08.336Z,94494.78
2022-08-26T20:39:36.008Z,94497.19
2022-08-26T20:42:06.332Z,94501.25
2022-08-26T20:44:54.668Z,94500.34
2022-08-26T20:47:23.456Z,94497.97
2022-08-26T20:54:54.339Z,94498.22
2022-08-26T20:57:22.224Z,94484.19
2022-08-26T20:59:49.750Z,94478.22
2022-08-26T21:02:17.588Z,94477.88
2022-08-26T21:04:45.181Z,94482.50
2022-08-26T21:07:12.707Z,94482.09
2022-08-26T21:09:40.855Z,94491.00
2022-08-26T21:15:12.296Z,94482.44
2022-08-26T21:17:39.733Z,94497.88
2022-08-26T21:20:08.446Z,94491.25
2022-08-26T21:22:36.162Z,94488.66
2022-08-26T21:25:03.904Z,94498.31
2022-08-26T21:27:31.731Z,94488.69
2022-08-26T21:29:59.102Z,94497.81
2022-08-26T21:37:30.614Z,94503.09
2022-08-26T21:40:01.285Z,94496.00
2022-08-26T21:42:33.166Z,94500.53
2022-08-26T21:45:01.601Z,94504.63
2022-08-26T21:47:31.619Z,94506.19
2022-08-26T21:49:59.696Z,94501.16
2022-08-26T21:52:27.396Z,94505.69
2022-08-26T21:57:33.123Z,94499.25
2022-08-26T22:00:00.787Z,94500.81
2022-08-26T22:02:34.114Z,94499.25
2022-08-26T22:05:01.570Z,94491.94
2022-08-26T22:07:30.444Z,94501.84
2022-08-26T22:09:58.125Z,94501.06
2022-08-26T22:12:25.779Z,94508.00
2022-08-26T22:19:52.636Z,94512.69
2022-08-26T22:22:20.257Z,94508.50
2022-08-26T22:24:47.859Z,94514.41
2022-08-26T22:27:15.500Z,94516.63
2022-08-26T22:29:43.203Z,94512.47
2022-08-26T22:32:10.833Z,94521.13
2022-08-26T22:34:38.623Z,94515.47
2022-08-26T22:42:10.622Z,94502.13
2022-08-26T22:44:38.488Z,94506.13
2022-08-26T22:47:06.704Z,94509.31
2022-08-26T22:49:34.255Z,94502.97
2022-08-26T22:52:02.063Z,94511.34
2022-08-26T22:54:29.558Z,94514.66
2022-08-26T22:56:57.145Z,94507.22
2022-08-26T23:04:29.001Z,94515.84
2022-08-26T23:06:56.618Z,94517.72
2022-08-26T23:09:24.117Z,94520.03
2022-08-26T23:11:51.725Z,94516.81
2022-08-26T23:14:19.341Z,94507.72
2022-08-26T23:16:47.288Z,94510.41
2022-08-26T23:19:15.814Z,94509.06
2022-08-26T23:26:47.131Z,94500.16
2022-08-26T23:29:15.367Z,94505.31
2022-08-26T23:31:43.178Z,94503.75
2022-08-26T23:34:31.193Z,94503.25
2022-08-26T23:36:59.451Z,94504.09
2022-08-26T23:39:28.695Z,94507.84
2022-08-26T23:41:57.515Z,94498.47
2022-08-26T23:49:29.041Z,94498.56
2022-08-26T23:52:14.570Z,94509.00
2022-08-26T23:54:42.206Z,94498.38
2022-08-26T23:57:10.420Z,94502.16
2022-08-26T23:59:38.982Z,94504.84
